Time;durP1;ratioP1;P1;durP2;ratioP2;P2;SDS_P1;SDS_P2;PMS_P1;PMS_P2;Temp;Humidity;BMP_temperature;BMP_pressure;BME280_temperature;BME280_humidity;BME280_pressure;Samples;Min_cycle;Max_cycle;Signal;HPM_P1;HPM_P2
2023/03/11 00:00:26;;;;;;;;;12.50;12.50;;;;;7.66;61.17;100455.84;4863021;29;45526;-76
2023/03/11 00:02:55;;;;;;;;;11.25;10.50;;;;;7.48;60.81;100430.59;4863038;29;46186;-75
2023/03/11 00:05:27;;;;;;;;;12.25;8.50;;;;;7.76;60.77;100483.06;4866909;29;45510;-75
2023/03/11 00:07:53;;;;;;;;;9.00;9.00;;;;;7.59;61.45;100468.41;4867519;29;45260;-76
2023/03/11 00:10:23;;;;;;;;;2.50;2.50;;;;;7.56;60.53;100457.84;4867459;29;45329;-75
2023/03/11 00:12:48;;;;;;;;;6.50;6.50;;;;;7.25;59.94;100423.22;4867517;29;45969;-75
2023/03/11 00:15:13;;;;;;;;;11.75;11.25;;;;;7.60;59.90;100510.00;4867221;29;45340;-75
2023/03/11 00:17:39;;;;;;;;;15.25;14.75;;;;;7.18;60.17;100461.41;4865694;29;45337;-75
2023/03/11 00:20:06;;;;;;;;;17.50;11.75;;;;;7.34;60.40;100499.13;4868601;29;45346;-75
2023/03/11 00:22:32;;;;;;;;;27.75;24.25;;;;;7.38;60.43;100504.34;4886020;29;45406;-75
2023/03/11 00:24:58;;;;;;;;;24.25;24.25;;;;;7.32;60.83;100480.56;4868948;29;45361;-75
2023/03/11 00:27:23;;;;;;;;;31.00;30.75;;;;;7.20;60.80;100443.66;4867318;29;45448;-75
2023/03/11 00:29:49;;;;;;;;;32.75;31.50;;;;;7.23;60.43;100462.19;4867145;29;45420;-75
2023/03/11 00:32:14;;;;;;;;;40.75;32.75;;;;;7.37;61.10;100465.41;4865764;29;46968;-75
2023/03/11 00:34:40;;;;;;;;;25.75;23.25;;;;;6.95;60.91;100396.47;4882378;29;45379;-75
2023/03/11 00:37:05;;;;;;;;;21.50;20.75;;;;;7.29;60.91;100454.09;4885995;29;45530;-75
2023/03/11 00:39:30;;;;;;;;;24.50;21.75;;;;;7.50;61.05;100492.56;4884420;29;45413;-75
2023/03/11 00:41:56;;;;;;;;;28.50;24.50;;;;;7.51;61.30;100488.97;4885569;29;45512;-75
2023/03/11 00:44:22;;;;;;;;;17.50;16.00;;;;;7.53;61.07;100467.69;4875091;29;45531;-76
2023/03/11 00:46:47;;;;;;;;;19.25;14.25;;;;;7.69;60.80;100497.41;4867033;29;45444;-75
2023/03/11 00:49:13;;;;;;;;;12.00;12.00;;;;;7.61;60.48;100479.00;4866734;29;45489;-75
2023/03/11 00:51:38;;;;;;;;;14.25;12.25;;;;;7.60;60.64;100463.97;4866856;29;45560;-75
2023/03/11 00:54:04;;;;;;;;;11.00;8.50;;;;;7.71;60.84;100479.66;4866827;29;45453;-75
2023/03/11 00:56:29;;;;;;;;;10.25;10.25;;;;;7.48;60.72;100449.19;4866789;29;45318;-75
2023/03/11 00:58:55;;;;;;;;;13.00;12.50;;;;;7.23;59.91;100401.13;4849856;29;45480;-76
2023/03/11 01:01:21;;;;;;;;;16.50;14.25;;;;;7.22;60.05;100402.06;4866771;29;45449;-75
2023/03/11 01:03:46;;;;;;;;;8.25;8.25;;;;;7.44;60.56;100465.28;4866642;29;45387;-75
2023/03/11 01:06:12;;;;;;;;;8.50;8.25;;;;;7.26;60.28;100462.13;4849819;29;45368;-75
2023/03/11 01:08:37;;;;;;;;;8.75;7.75;;;;;7.37;60.46;100488.44;4849206;29;45496;-75
2023/03/11 01:11:05;;;;;;;;;12.75;10.50;;;;;7.15;60.79;100470.34;4866617;29;46568;-75
2023/03/11 01:13:30;;;;;;;;;10.00;9.25;;;;;7.30;60.52;100516.91;4866389;29;45917;-75
2023/03/11 01:15:56;;;;;;;;;15.50;11.50;;;;;6.96;60.64;100439.81;4865373;29;45429;-75
2023/03/11 01:18:22;;;;;;;;;8.50;8.50;;;;;7.02;60.48;100451.16;4866394;29;45398;-75
2023/03/11 01:20:48;;;;;;;;;12.00;8.50;;;;;7.14;60.63;100478.34;4873579;29;45421;-75
2023/03/11 01:23:15;;;;;;;;;8.25;6.00;;;;;6.82;60.76;100437.47;4866449;29;45580;-75
2023/03/11 01:25:40;;;;;;;;;8.75;7.00;;;;;7.06;60.73;100486.47;4866640;29;45473;-75
2023/03/11 01:28:07;;;;;;;;;10.00;7.00;;;;;7.06;60.89;100494.41;4849525;29;45343;-75
2023/03/11 01:30:35;;;;;;;;;7.00;6.25;;;;;6.78;61.06;100451.69;4834108;29;47267;-75
2023/03/11 01:33:01;;;;;;;;;9.75;6.50;;;;;7.01;60.92;100477.72;4869049;29;45671;-75
2023/03/11 01:35:28;;;;;;;;;7.00;5.25;;;;;6.69;61.26;100418.28;4885064;29;45375;-75
2023/03/11 01:37:54;;;;;;;;;8.00;6.25;;;;;6.84;60.90;100460.38;4884806;29;46576;-75
2023/03/11 01:40:30;;;;;;;;;6.50;6.50;;;;;6.81;61.37;100464.88;4885048;29;45586;-75
2023/03/11 01:42:57;;;;;;;;;5.50;5.25;;;;;6.80;61.05;100458.72;4884742;29;45612;-75
2023/03/11 01:46:00;;;;;;;;;5.25;5.25;;;;;6.89;61.52;100467.38;4849455;29;45556;-75
2023/03/11 01:48:27;;;;;;;;;5.50;5.50;;;;;7.08;61.47;100499.69;4855189;29;45822;-75
2023/03/11 01:50:53;;;;;;;;;5.50;5.50;;;;;6.86;61.37;100460.34;4881305;29;45464;-75
2023/03/11 01:53:20;;;;;;;;;6.50;5.25;;;;;7.10;61.47;100496.13;4867861;29;45392;-75
2023/03/11 01:55:47;;;;;;;;;6.00;5.00;;;;;6.76;61.15;100426.97;4867847;29;45459;-75
2023/03/11 01:58:22;;;;;;;;;5.00;5.00;;;;;6.99;61.55;100475.09;4884624;29;45533;-75
2023/03/11 02:00:48;;;;;;;;;3.00;3.00;;;;;6.96;61.10;100475.16;4884637;29;45539;-75
2023/03/11 02:03:20;;;;;;;;;4.50;4.50;;;;;6.77;61.49;100457.91;4867648;29;45492;-75
2023/03/11 02:05:48;;;;;;;;;5.00;5.00;;;;;6.90;61.27;100482.38;4884559;29;45361;-75
2023/03/11 02:08:13;;;;;;;;;5.25;2.00;;;;;6.95;61.16;100492.00;4867545;29;45635;-75
2023/03/11 02:10:41;;;;;;;;;8.25;5.25;;;;;6.72;61.52;100467.75;4884342;29;45656;-74
2023/03/11 02:13:07;;;;;;;;;6.00;6.00;;;;;6.80;61.85;100490.56;4884576;29;45581;-75
2023/03/11 02:15:33;;;;;;;;;6.00;5.25;;;;;6.72;62.03;100470.41;4867091;29;45363;-75
2023/03/11 02:18:04;;;;;;;;;5.00;3.75;;;;;6.65;61.85;100461.69;4884406;29;45523;-75
2023/03/11 02:21:12;;;;;;;;;5.25;5.25;;;;;6.75;62.01;100475.63;4879255;29;46138;-74
2023/03/11 02:23:49;;;;;;;;;6.00;4.75;;;;;6.88;62.52;100508.09;4845572;29;45239;-75
2023/03/11 02:26:22;;;;;;;;;4.00;4.00;;;;;6.89;62.73;100478.88;4865194;29;45499;-75
2023/03/11 02:28:50;;;;;;;;;3.00;3.00;;;;;6.89;62.88;100478.88;4848507;29;45486;-75
2023/03/11 02:31:16;;;;;;;;;0.25;0.25;;;;;6.72;62.28;100446.53;4865243;29;46364;-75
2023/03/11 02:33:44;;;;;;;;;5.25;3.50;;;;;6.89;63.10;100481.53;4873521;29;45621;-74
2023/03/11 02:36:29;;;;;;;;;3.00;3.00;;;;;7.22;62.48;100525.03;4883997;29;45330;-75
2023/03/11 02:38:55;;;;;;;;;5.50;5.50;;;;;6.64;62.44;100425.47;4867225;29;45627;-75
2023/03/11 02:41:20;;;;;;;;;6.00;3.75;;;;;7.09;62.34;100483.75;4884017;29;46150;-75
2023/03/11 02:43:47;;;;;;;;;5.00;3.00;;;;;7.21;62.46;100507.34;4877972;29;45710;-75
2023/03/11 02:46:13;;;;;;;;;7.25;3.75;;;;;6.77;62.73;100416.34;4879148;29;45430;-75
2023/03/11 02:48:40;;;;;;;;;4.25;3.00;;;;;6.97;62.35;100447.72;4867121;29;45929;-75
2023/03/11 02:51:06;;;;;;;;;4.00;3.00;;;;;6.89;62.25;100430.25;4883632;29;45449;-75
2023/03/11 02:53:36;;;;;;;;;5.25;3.00;;;;;6.67;62.38;100409.50;4884032;29;45691;-75
2023/03/11 02:56:05;;;;;;;;;4.75;4.75;;;;;6.96;63.40;100469.00;4883813;29;45346;-75
2023/03/11 02:58:30;;;;;;;;;4.50;4.50;;;;;6.83;62.82;100444.50;4883756;29;45471;-75
2023/03/11 03:00:56;;;;;;;;;5.25;4.00;;;;;6.67;62.34;100434.22;4883604;29;45995;-75
2023/03/11 03:03:21;;;;;;;;;3.00;3.00;;;;;6.59;62.70;100444.13;4883796;29;45498;-75
2023/03/11 03:05:46;;;;;;;;;4.75;3.00;;;;;6.45;62.77;100441.75;4866012;29;45364;-75
2023/03/11 03:08:12;;;;;;;;;2.00;2.00;;;;;6.67;62.36;100503.19;4866659;29;45436;-75
2023/03/11 03:10:37;;;;;;;;;5.00;5.00;;;;;6.42;63.14;100462.16;4866812;29;48172;-75
2023/03/11 03:13:03;;;;;;;;;4.50;4.50;;;;;6.45;63.53;100448.84;4866560;29;45782;-75
2023/03/11 03:15:29;;;;;;;;;6.75;5.00;;;;;6.66;63.47;100503.22;4883578;29;45481;-75
2023/03/11 03:17:54;;;;;;;;;9.00;6.00;;;;;6.15;63.43;100400.84;4866769;29;45546;-75
2023/03/11 03:20:21;;;;;;;;;7.00;6.00;;;;;6.29;63.62;100435.00;4879524;29;46444;-75
2023/03/11 03:22:47;;;;;;;;;6.75;6.75;;;;;6.36;64.08;100441.06;4848112;29;45697;-75
2023/03/11 03:25:12;;;;;;;;;3.00;3.00;;;;;6.48;63.52;100452.31;4864827;29;45333;-75
2023/03/11 03:27:38;;;;;;;;;5.25;5.25;;;;;6.50;64.37;100446.97;4848010;29;45444;-75
2023/03/11 03:30:05;;;;;;;;;5.00;5.00;;;;;6.59;63.76;100453.88;4847805;29;46167;-75
2023/03/11 03:32:30;;;;;;;;;5.50;5.50;;;;;6.37;63.60;100422.47;4847883;29;45847;-75
2023/03/11 03:34:57;;;;;;;;;8.00;8.00;;;;;6.43;64.29;100432.97;4877780;29;45520;-75
2023/03/11 03:37:24;;;;;;;;;7.25;6.00;;;;;6.55;63.53;100453.06;4883328;29;45555;-75
2023/03/11 03:39:50;;;;;;;;;8.00;7.50;;;;;6.56;63.79;100467.19;4868573;29;48007;-74
2023/03/11 03:42:15;;;;;;;;;1.75;1.75;;;;;6.21;64.31;100406.00;4873390;29;45327;-75
2023/03/11 03:44:41;;;;;;;;;3.50;3.50;;;;;6.51;64.13;100456.66;4872330;29;45277;-75
2023/03/11 03:47:06;;;;;;;;;7.25;7.00;;;;;6.21;64.69;100419.25;4867990;29;45380;-74
2023/03/11 03:49:32;;;;;;;;;5.50;5.50;;;;;6.19;64.38;100420.19;4867404;29;45339;-74
2023/03/11 03:51:57;;;;;;;;;8.50;7.00;;;;;6.19;64.83;100420.19;4866535;29;45503;-75
2023/03/11 03:54:22;;;;;;;;;7.75;7.00;;;;;6.22;64.76;100434.25;4867817;29;45614;-74
2023/03/11 03:56:48;;;;;;;;;5.25;5.25;;;;;6.31;64.72;100454.41;4866169;29;45495;-75
2023/03/11 03:59:13;;;;;;;;;9.75;8.00;;;;;6.48;65.39;100481.47;4867476;29;45335;-74
2023/03/11 04:01:38;;;;;;;;;6.00;6.00;;;;;6.11;64.71;100437.13;4867822;29;45333;-74
2023/03/11 04:04:04;;;;;;;;;6.50;6.50;;;;;6.13;65.33;100429.13;4866153;29;45446;-74
2023/03/11 04:06:29;;;;;;;;;6.00;6.00;;;;;6.28;64.89;100450.06;4865888;29;45565;-75
2023/03/11 04:08:55;;;;;;;;;7.00;7.00;;;;;6.33;64.57;100465.84;4867269;29;45402;-75
2023/03/11 04:11:21;;;;;;;;;6.75;6.75;;;;;6.25;65.30;100460.72;4866210;29;45487;-75
2023/03/11 04:13:46;;;;;;;;;5.75;5.75;;;;;6.58;65.14;100505.16;4867430;29;45638;-75
2023/03/11 04:16:18;;;;;;;;;5.00;4.00;;;;;6.05;65.64;100409.88;4867414;29;45508;-75
2023/03/11 04:18:43;;;;;;;;;5.25;5.25;;;;;6.17;65.33;100419.34;4867165;29;46419;-74
2023/03/11 04:21:09;;;;;;;;;6.00;6.00;;;;;6.45;65.50;100467.41;4877241;29;45428;-75
2023/03/11 04:23:34;;;;;;;;;7.75;7.75;;;;;6.53;65.40;100488.44;4884854;29;45506;-75
2023/03/11 04:26:00;;;;;;;;;6.00;4.00;;;;;6.44;65.67;100469.16;4875557;29;45828;-75
2023/03/11 04:28:26;;;;;;;;;7.00;6.00;;;;;6.61;65.01;100479.44;4866979;29;45465;-75
2023/03/11 04:30:51;;;;;;;;;7.25;6.50;;;;;6.35;64.92;100437.53;4867259;29;45494;-75
2023/03/11 04:33:16;;;;;;;;;8.25;6.00;;;;;6.53;64.68;100484.00;4872002;29;45331;-74
2023/03/11 04:35:42;;;;;;;;;7.00;6.25;;;;;6.12;64.99;100427.38;4885691;29;45366;-74
2023/03/11 04:38:07;;;;;;;;;6.75;6.50;;;;;6.00;65.24;100419.66;4885870;29;45434;-75
2023/03/11 04:40:32;;;;;;;;;8.00;7.00;;;;;6.16;65.50;100475.91;4884545;29;45475;-75
2023/03/11 04:42:58;;;;;;;;;8.50;7.00;;;;;5.87;65.92;100419.00;4884416;29;45452;-74
2023/03/11 04:45:23;;;;;;;;;7.50;6.75;;;;;5.97;65.38;100446.22;4867275;29;45657;-74
2023/03/11 04:47:49;;;;;;;;;9.25;9.25;;;;;5.84;66.09;100427.00;4866837;29;45393;-75
2023/03/11 04:50:16;;;;;;;;;7.75;7.75;;;;;6.33;65.84;100513.56;4866578;29;45547;-74
2023/03/11 04:52:41;;;;;;;;;8.25;8.00;;;;;6.32;66.30;100525.09;4865625;29;45349;-74
2023/03/11 04:55:07;;;;;;;;;9.00;6.25;;;;;6.06;66.20;100473.41;4865590;29;45671;-74
2023/03/11 04:57:33;;;;;;;;;11.00;10.50;;;;;6.20;66.33;100493.47;4866407;29;45399;-74
2023/03/11 04:59:58;;;;;;;;;12.00;9.00;;;;;6.11;66.61;100476.88;4866795;29;45401;-75
2023/03/11 05:02:24;;;;;;;;;10.00;10.00;;;;;6.41;66.27;100519.59;4866822;29;45348;-75
2023/03/11 05:04:49;;;;;;;;;10.00;10.00;;;;;6.08;66.04;100454.84;4866632;29;45663;-75
2023/03/11 05:07:15;;;;;;;;;11.25;8.50;;;;;6.38;66.70;100502.88;4866495;29;46315;-75
2023/03/11 05:09:40;;;;;;;;;10.00;10.00;;;;;6.05;66.48;100431.06;4865371;29;45485;-75
2023/03/11 05:12:06;;;;;;;;;14.00;9.50;;;;;6.48;66.45;100488.53;4866571;29;45335;-75
2023/03/11 05:14:31;;;;;;;;;9.75;7.75;;;;;6.32;66.34;100457.94;4865311;29;46025;-75
2023/03/11 05:16:57;;;;;;;;;11.25;11.00;;;;;6.39;65.96;100465.72;4864952;29;47118;-75
2023/03/11 05:19:33;;;;;;;;;12.50;10.00;;;;;6.50;66.24;100489.41;4865116;29;45442;-75
2023/03/11 05:21:58;;;;;;;;;10.50;9.25;;;;;6.57;65.80;100514.88;4882898;29;45370;-75
2023/03/11 05:24:27;;;;;;;;;10.25;10.25;;;;;6.64;65.87;100527.13;4873038;29;45451;-75
2023/03/11 05:26:52;;;;;;;;;10.25;10.25;;;;;6.53;65.54;100510.53;4866342;29;46514;-75
2023/03/11 05:29:19;;;;;;;;;11.00;8.50;;;;;6.26;65.98;100469.53;4866485;29;45252;-75
2023/03/11 05:31:44;;;;;;;;;12.00;12.00;;;;;6.11;65.57;100478.63;4865291;29;45523;-75
2023/03/11 05:34:09;;;;;;;;;8.25;7.00;;;;;5.93;66.07;100445.34;4877764;29;45486;-75
2023/03/11 05:36:35;;;;;;;;;11.00;10.75;;;;;6.30;66.46;100500.38;4884801;29;45468;-75
2023/03/11 05:39:00;;;;;;;;;5.75;3.00;;;;;6.37;66.08;100522.34;4883713;29;45437;-74
2023/03/11 05:41:25;;;;;;;;;7.00;7.00;;;;;6.40;65.98;100512.56;4884906;29;45867;-74
2023/03/11 05:43:51;;;;;;;;;13.00;10.00;;;;;6.34;66.07;100509.16;4878287;29;45696;-74
2023/03/11 05:46:16;;;;;;;;;11.75;11.75;;;;;6.52;66.73;100539.75;4865777;29;45624;-74
2023/03/11 05:48:42;;;;;;;;;10.50;10.50;;;;;6.23;66.25;100517.28;4849355;29;45803;-75
2023/03/11 05:51:09;;;;;;;;;10.00;9.75;;;;;6.17;66.24;100512.13;4865888;29;45454;-75
2023/03/11 05:53:34;;;;;;;;;10.00;9.25;;;;;6.14;66.75;100515.69;4866184;29;45529;-75
2023/03/11 05:56:00;;;;;;;;;11.00;9.75;;;;;6.20;67.02;100512.94;4848911;29;47317;-74
2023/03/11 05:58:31;;;;;;;;;11.50;10.00;;;;;6.48;66.96;100573.38;4849008;29;45346;-75
2023/03/11 06:00:58;;;;;;;;;9.00;8.75;;;;;6.17;66.53;100512.13;4865484;29;45414;-75
2023/03/11 06:03:24;;;;;;;;;12.75;8.25;;;;;6.22;66.72;100510.25;4848829;29;45734;-75
2023/03/11 06:05:50;;;;;;;;;7.75;7.75;;;;;6.46;66.18;100546.03;4863814;29;46804;-75
2023/03/11 06:08:15;;;;;;;;;6.50;6.50;;;;;6.12;66.37;100483.91;4848225;29;45401;-75
2023/03/11 06:10:41;;;;;;;;;11.25;10.00;;;;;6.49;66.47;100556.59;4865839;29;45226;-75
2023/03/11 06:13:06;;;;;;;;;10.00;8.25;;;;;6.51;66.40;100554.78;4848898;29;45340;-75
2023/03/11 06:15:33;;;;;;;;;9.00;8.50;;;;;6.11;66.26;100502.47;4865376;29;45302;-74
2023/03/11 06:17:58;;;;;;;;;10.75;7.00;;;;;6.37;66.47;100532.97;4848878;29;45704;-74
2023/03/11 06:20:24;;;;;;;;;7.75;6.75;;;;;6.08;66.74;100500.78;4852716;29;45353;-75
2023/03/11 06:22:50;;;;;;;;;5.50;2.00;;;;;6.29;66.16;100533.09;4884495;29;45318;-75
2023/03/11 06:25:16;;;;;;;;;8.25;7.00;;;;;6.13;66.20;100495.38;4848774;29;46893;-75
2023/03/11 06:27:43;;;;;;;;;11.00;8.00;;;;;6.20;66.79;100517.34;4865466;29;45553;-75
2023/03/11 06:30:09;;;;;;;;;9.00;7.25;;;;;6.24;66.22;100514.59;4865557;29;45411;-75
2023/03/11 06:32:35;;;;;;;;;10.00;6.75;;;;;6.32;66.64;100534.81;4848684;29;45836;-75
2023/03/11 06:35:02;;;;;;;;;8.25;7.00;;;;;6.42;66.75;100544.34;4866463;29;48112;-75
2023/03/11 06:37:27;;;;;;;;;9.75;8.00;;;;;6.54;67.08;100575.06;4884079;29;45383;-75
2023/03/11 06:39:53;;;;;;;;;8.00;6.00;;;;;6.42;66.28;100550.53;4884178;29;45303;-74
2023/03/11 06:42:18;;;;;;;;;7.00;7.00;;;;;6.53;66.58;100566.22;4883849;29;45329;-75
2023/03/11 06:44:47;;;;;;;;;6.25;5.75;;;;;6.64;66.61;100590.78;4870346;29;45569;-75
2023/03/11 06:47:12;;;;;;;;;7.00;6.75;;;;;6.66;66.55;100583.66;4865215;29;45690;-75
2023/03/11 06:49:39;;;;;;;;;8.75;8.75;;;;;6.45;65.87;100541.66;4848424;29;45406;-75
2023/03/11 06:52:05;;;;;;;;;6.75;6.00;;;;;6.29;66.58;100507.44;4865265;29;45373;-75
2023/03/11 06:54:31;;;;;;;;;9.25;6.75;;;;;6.29;65.97;100504.78;4865141;29;45325;-75
2023/03/11 06:56:56;;;;;;;;;11.00;8.75;;;;;6.23;66.43;100491.69;4847965;29;45398;-75
2023/03/11 06:59:21;;;;;;;;;10.00;7.50;;;;;6.57;66.04;100567.06;4865247;29;45339;-75
2023/03/11 07:01:47;;;;;;;;;11.75;11.75;;;;;6.29;66.35;100523.34;4848221;29;45541;-75
2023/03/11 07:04:12;;;;;;;;;8.00;8.00;;;;;6.39;66.76;100539.97;4864842;29;45402;-75
2023/03/11 07:06:38;;;;;;;;;7.75;7.75;;;;;6.67;66.52;100584.56;4864822;29;45366;-75
2023/03/11 07:09:03;;;;;;;;;11.25;10.75;;;;;6.43;66.85;100548.75;4848132;29;45590;-75
2023/03/11 07:11:29;;;;;;;;;10.75;8.00;;;;;6.75;66.92;100609.16;4864901;29;45661;-75
2023/03/11 07:13:54;;;;;;;;;11.50;9.00;;;;;6.51;66.74;100562.72;4847429;29;47503;-75
2023/03/11 07:16:23;;;;;;;;;6.25;6.25;;;;;6.35;66.19;100533.00;4847808;29;46188;-75
2023/03/11 07:18:50;;;;;;;;;7.50;7.50;;;;;6.67;66.53;100601.34;4847994;29;45416;-75
2023/03/11 07:21:20;;;;;;;;;7.75;5.00;;;;;6.75;66.27;100614.47;4875574;29;45464;-75
2023/03/11 07:23:48;;;;;;;;;8.75;7.00;;;;;6.57;66.66;100583.84;4866594;29;47420;-75
2023/03/11 07:26:15;;;;;;;;;9.50;8.00;;;;;6.71;65.94;100623.38;4869349;29;45438;-75
2023/03/11 07:28:41;;;;;;;;;10.75;7.00;;;;;6.40;65.88;100573.53;4848065;29;45487;-75
2023/03/11 07:31:16;;;;;;;;;6.50;6.00;;;;;6.70;65.77;100626.03;4864604;29;45632;-75
2023/03/11 07:33:42;;;;;;;;;9.00;6.50;;;;;6.24;66.24;100545.56;4855500;29;46976;-75
2023/03/11 07:36:11;;;;;;;;;7.50;7.50;;;;;6.74;66.53;100627.75;4865962;29;45387;-75
2023/03/11 07:38:37;;;;;;;;;8.00;7.00;;;;;6.63;66.48;100607.59;4883483;29;45469;-75
2023/03/11 07:41:02;;;;;;;;;6.50;5.00;;;;;6.86;66.50;100648.75;4866381;29;45621;-75
2023/03/11 07:43:28;;;;;;;;;7.25;7.25;;;;;6.55;65.74;100605.97;4879410;29;45504;-75
2023/03/11 07:46:02;;;;;;;;;7.00;6.00;;;;;6.79;65.95;100650.63;4864455;29;45563;-75
2023/03/11 07:48:27;;;;;;;;;6.25;5.75;;;;;6.38;66.02;100593.91;4847820;29;45472;-75
2023/03/11 07:51:02;;;;;;;;;8.00;6.75;;;;;6.72;65.93;100651.66;4864225;29;45548;-75
2023/03/11 07:53:28;;;;;;;;;5.75;4.75;;;;;6.54;65.69;100612.19;4864419;29;45577;-75
2023/03/11 07:55:58;;;;;;;;;2.75;2.00;;;;;6.67;65.88;100619.03;4847417;29;45529;-75
2023/03/11 07:58:24;;;;;;;;;7.00;5.75;;;;;6.85;65.99;100636.41;4864421;29;45412;-75
2023/03/11 08:00:49;;;;;;;;;6.00;6.00;;;;;6.90;65.81;100634.53;4864292;29;45408;-75
2023/03/11 08:03:14;;;;;;;;;7.50;6.50;;;;;6.37;65.85;100546.22;4864416;29;46413;-75
2023/03/11 08:05:40;;;;;;;;;5.75;5.75;;;;;6.64;65.55;100598.72;4863883;29;45383;-75
2023/03/11 08:08:05;;;;;;;;;9.25;6.25;;;;;6.61;65.70;100595.25;4847523;29;45514;-75
2023/03/11 08:10:31;;;;;;;;;12.75;8.50;;;;;6.73;65.98;100615.38;4847273;29;45463;-75
2023/03/11 08:12:56;;;;;;;;;10.00;8.75;;;;;6.75;65.59;100601.19;4864172;29;45471;-75
2023/03/11 08:15:21;;;;;;;;;12.25;11.50;;;;;7.04;65.88;100653.69;4846427;29;45542;-75
2023/03/11 08:17:47;;;;;;;;;12.50;11.50;;;;;6.76;64.73;100599.41;4864087;29;46042;-75
2023/03/11 08:20:12;;;;;;;;;10.25;8.75;;;;;6.92;65.46;100642.47;4849631;29;45857;-75
2023/03/11 08:22:38;;;;;;;;;10.00;7.75;;;;;6.73;65.15;100607.44;4882861;29;45464;-75
2023/03/11 08:25:03;;;;;;;;;9.25;8.00;;;;;7.09;65.44;100676.63;4849580;29;45503;-75
2023/03/11 08:27:29;;;;;;;;;8.00;8.00;;;;;6.91;65.44;100636.25;4850528;29;45420;-75
2023/03/11 08:29:54;;;;;;;;;6.75;6.50;;;;;6.89;65.33;100616.84;4867057;29;45442;-75
2023/03/11 08:32:20;;;;;;;;;12.00;10.00;;;;;7.05;65.48;100650.16;4867151;29;45485;-75
2023/03/11 08:34:45;;;;;;;;;12.50;9.25;;;;;6.75;65.13;100606.50;4883158;29;45400;-75
2023/03/11 08:37:10;;;;;;;;;10.75;10.75;;;;;6.89;65.20;100630.13;4886011;29;45359;-75
2023/03/11 08:39:36;;;;;;;;;10.50;9.75;;;;;6.82;65.08;100601.97;4885865;29;45298;-75
2023/03/11 08:42:02;;;;;;;;;10.50;10.00;;;;;7.00;66.00;100617.53;4885522;29;45346;-75
2023/03/11 08:44:28;;;;;;;;;11.00;9.50;;;;;7.08;65.06;100622.66;4874471;29;45507;-75
2023/03/11 08:46:53;;;;;;;;;11.25;8.50;;;;;6.84;64.43;100571.81;4867108;29;45423;-75
2023/03/11 08:49:19;;;;;;;;;8.75;7.25;;;;;6.95;64.98;100589.31;4866689;29;45343;-75
2023/03/11 08:51:44;;;;;;;;;12.25;9.25;;;;;7.23;64.77;100648.94;4865640;29;47095;-75
2023/03/11 08:54:09;;;;;;;;;10.50;10.50;;;;;7.09;64.53;100635.03;4866731;29;45429;-75
2023/03/11 08:56:35;;;;;;;;;11.00;9.25;;;;;7.28;64.44;100672.69;4865557;29;45485;-75
2023/03/11 08:59:00;;;;;;;;;12.75;11.25;;;;;7.06;64.78;100637.75;4866616;29;45380;-75
2023/03/11 09:01:28;;;;;;;;;10.50;9.25;;;;;7.40;64.68;100691.06;4866836;29;46235;-75
2023/03/11 09:03:53;;;;;;;;;8.00;8.00;;;;;7.05;64.73;100620.97;4866473;29;45697;-75
2023/03/11 09:06:21;;;;;;;;;9.25;8.50;;;;;7.19;65.14;100643.69;4866759;29;45497;-75
2023/03/11 09:08:48;;;;;;;;;8.00;8.00;;;;;7.10;64.38;100628.84;4866493;29;45567;-75
2023/03/11 09:11:14;;;;;;;;;8.00;7.00;;;;;7.32;64.15;100647.84;4866603;29;46148;-75
2023/03/11 09:13:41;;;;;;;;;6.00;6.00;;;;;7.14;63.93;100616.38;4864865;29;45420;-75
2023/03/11 09:16:13;;;;;;;;;7.50;6.50;;;;;7.31;64.20;100639.91;4865375;29;45483;-75
2023/03/11 09:18:38;;;;;;;;;11.25;8.75;;;;;7.25;64.55;100617.03;4865061;29;45341;-75
2023/03/11 09:21:04;;;;;;;;;11.75;8.50;;;;;7.29;64.19;100621.34;4874448;29;47265;-75
2023/03/11 09:23:29;;;;;;;;;9.50;8.00;;;;;7.64;64.59;100674.66;4899622;29;45523;-75
2023/03/11 09:25:55;;;;;;;;;6.75;6.00;;;;;7.44;63.54;100645.84;4873556;29;45426;-75
2023/03/11 09:28:20;;;;;;;;;9.00;9.00;;;;;7.26;63.79;100609.94;4866339;29;45368;-75
2023/03/11 09:30:45;;;;;;;;;11.75;10.25;;;;;7.21;63.38;100600.25;4866276;29;45542;-75
2023/03/11 09:33:11;;;;;;;;;13.00;11.50;;;;;7.30;63.14;100609.84;4870283;29;45459;-75
2023/03/11 09:35:39;;;;;;;;;6.50;6.50;;;;;7.40;63.28;100624.66;4884683;29;45615;-75
2023/03/11 09:38:05;;;;;;;;;6.00;6.00;;;;;7.68;63.63;100666.56;4884339;29;45369;-74
2023/03/11 09:40:48;;;;;;;;;7.00;4.00;;;;;7.46;62.86;100642.25;4884848;29;45567;-74
2023/03/11 09:43:43;;;;;;;;;7.75;6.25;;;;;7.75;62.79;100677.94;4881751;29;45984;-74
2023/03/11 09:46:41;;;;;;;;;6.50;6.50;;;;;7.55;62.86;100638.50;4864379;29;45447;-74
2023/03/11 09:49:34;;;;;;;;;7.00;6.25;;;;;7.82;63.19;100681.34;4863726;29;45358;-75
2023/03/11 09:52:09;;;;;;;;;9.25;7.00;;;;;7.41;62.93;100594.53;4866056;29;45508;-74
2023/03/11 09:54:55;;;;;;;;;8.00;6.00;;;;;7.43;62.57;100583.88;4872845;29;45694;-76
2023/03/11 09:57:30;;;;;;;;;6.75;6.75;;;;;7.83;62.76;100662.69;4884343;29;45269;-76
2023/03/11 09:59:58;;;;;;;;;5.50;4.00;;;;;7.87;62.19;100650.22;4883469;29;45806;-76
2023/03/11 10:02:25;;;;;;;;;6.25;5.50;;;;;7.84;61.67;100661.81;4884478;29;46471;-76
2023/03/11 10:05:00;;;;;;;;;8.00;6.75;;;;;7.38;61.12;100602.59;4882848;29;45464;-76
2023/03/11 10:07:50;;;;;;;;;5.75;4.25;;;;;7.59;61.45;100637.56;4884591;29;45482;-75
2023/03/11 10:10:16;;;;;;;;;4.25;3.75;;;;;7.52;61.57;100644.78;4882338;29;45535;-76
2023/03/11 10:12:42;;;;;;;;;7.00;6.00;;;;;7.81;61.70;100685.78;4884452;29;46780;-75
2023/03/11 10:15:34;;;;;;;;;3.50;3.50;;;;;7.31;61.72;100608.06;4883022;29;45503;-76
2023/03/11 10:18:29;;;;;;;;;6.00;6.00;;;;;7.84;61.63;100692.81;4884453;29;45581;-75
2023/03/11 10:21:04;;;;;;;;;2.75;2.00;;;;;7.73;61.63;100664.69;4874729;29;45995;-75
2023/03/11 10:24:02;;;;;;;;;4.00;3.00;;;;;7.95;61.23;100699.66;4864079;29;47427;-76
2023/03/11 10:26:43;;;;;;;;;5.00;3.50;;;;;7.48;61.29;100621.84;4865453;29;45428;-75
2023/03/11 10:29:50;;;;;;;;;3.00;3.00;;;;;7.98;60.99;100688.06;4864400;29;45508;-75
2023/03/11 10:32:26;;;;;;;;;6.00;6.00;;;;;7.43;61.36;100599.81;4874677;29;45328;-76
2023/03/11 10:35:23;;;;;;;;;5.75;4.25;;;;;7.65;61.28;100650.72;4882151;29;47902;-73
2023/03/11 10:38:14;;;;;;;;;3.75;3.00;;;;;7.73;60.78;100650.53;4878519;29;45548;-73
2023/03/11 10:40:42;;;;;;;;;1.75;1.75;;;;;7.72;61.19;100644.34;4882930;29;45461;-73
2023/03/11 10:43:20;;;;;;;;;5.00;3.50;;;;;7.63;60.14;100641.88;4882926;29;45342;-73
2023/03/11 10:45:49;;;;;;;;;2.00;1.00;;;;;7.95;60.96;100680.16;4865121;29;45594;-73
2023/03/11 10:48:18;;;;;;;;;6.00;6.00;;;;;7.67;61.06;100629.41;4848142;29;45626;-73
2023/03/11 10:51:13;;;;;;;;;3.00;3.00;;;;;8.04;60.86;100668.47;4848236;29;45344;-73
2023/03/11 10:53:50;;;;;;;;;3.00;3.00;;;;;8.12;60.44;100685.09;4848271;29;46102;-73
2023/03/11 10:56:33;;;;;;;;;6.00;4.00;;;;;8.27;60.04;100698.03;4855228;29;47826;-73
2023/03/11 10:58:59;;;;;;;;;4.00;4.00;;;;;8.16;60.37;100668.16;4883737;29;45329;-73
2023/03/11 11:01:25;;;;;;;;;7.50;6.00;;;;;7.72;60.16;100600.97;4884115;29;45387;-73
2023/03/11 11:03:56;;;;;;;;;3.75;3.75;;;;;8.02;59.80;100644.56;4866453;29;45835;-74
2023/03/11 11:06:32;;;;;;;;;6.00;6.00;;;;;8.02;60.05;100644.56;4866723;29;47090;-73
2023/03/11 11:09:21;;;;;;;;;6.00;3.00;;;;;8.33;60.33;100681.91;4883372;29;45401;-73
2023/03/11 11:12:00;;;;;;;;;4.00;3.00;;;;;8.21;59.96;100649.44;4883705;29;45459;-76
2023/03/11 11:14:44;;;;;;;;;6.00;6.00;;;;;8.23;60.12;100636.97;4883822;29;45372;-76
2023/03/11 11:17:34;;;;;;;;;4.00;4.00;;;;;8.55;60.24;100675.25;4866533;29;47468;-75
2023/03/11 11:20:11;;;;;;;;;3.50;3.50;;;;;8.34;59.33;100640.25;4865378;29;45678;-73
2023/03/11 11:22:38;;;;;;;;;9.50;6.50;;;;;8.34;59.59;100629.63;4863617;29;45452;-73
2023/03/11 11:25:25;;;;;;;;;7.00;6.25;;;;;8.32;59.64;100629.66;4864736;29;45509;-73
2023/03/11 11:28:00;;;;;;;;;6.25;3.00;;;;;8.49;59.27;100666.50;4847529;29;47915;-73
2023/03/11 11:30:26;;;;;;;;;4.25;3.00;;;;;8.64;59.61;100691.84;4848107;29;46212;-73
2023/03/11 11:32:54;;;;;;;;;3.75;3.75;;;;;8.56;58.81;100666.34;4849517;29;45456;-73
2023/03/11 11:35:22;;;;;;;;;6.00;6.00;;;;;8.61;59.00;100675.97;4883384;29;45481;-73